sensor_id;sensor_type;location;lat;lon;timestamp;temperature;humidity
66312;HTU21D;53114;51.138;6.008;2022-11-15T00:02:26;10.39;118.99
66312;HTU21D;53114;51.138;6.008;2022-11-15T00:05:11;10.39;118.99
66312;HTU21D;53114;51.138;6.008;2022-11-15T00:07:56;10.43;118.99
66312;HTU21D;53114;51.138;6.008;2022-11-15T00:10:42;10.36;118.99
66312;HTU21D;53114;51.138;6.008;2022-11-15T00:13:27;10.35;118.99
66312;HTU21D;53114;51.138;6.008;2022-11-15T00:16:12;10.24;118.99
66312;HTU21D;53114;51.138;6.008;2022-11-15T00:18:56;10.10;118.99
66312;HTU21D;53114;51.138;6.008;2022-11-15T00:21:42;9.98;118.99
66312;HTU21D;53114;51.138;6.008;2022-11-15T00:24:26;9.86;118.99
66312;HTU21D;53114;51.138;6.008;2022-11-15T00:27:11;9.81;118.99
66312;HTU21D;53114;51.138;6.008;2022-11-15T00:29:55;9.81;118.99
66312;HTU21D;53114;51.138;6.008;2022-11-15T00:32:40;9.80;118.99
66312;HTU21D;53114;51.138;6.008;2022-11-15T00:35:24;9.80;118.99
66312;HTU21D;53114;51.138;6.008;2022-11-15T00:38:09;9.84;118.99
66312;HTU21D;53114;51.138;6.008;2022-11-15T00:40:54;9.85;118.99
66312;HTU21D;53114;51.138;6.008;2022-11-15T00:43:39;9.88;118.99
66312;HTU21D;53114;51.138;6.008;2022-11-15T00:46:24;9.85;118.99
66312;HTU21D;53114;51.138;6.008;2022-11-15T00:49:08;9.83;118.99
66312;HTU21D;53114;51.138;6.008;2022-11-15T00:51:53;9.82;118.99
66312;HTU21D;53114;51.138;6.008;2022-11-15T00:54:38;9.83;118.99
66312;HTU21D;53114;51.138;6.008;2022-11-15T00:57:23;9.84;118.99
66312;HTU21D;53114;51.138;6.008;2022-11-15T01:00:08;9.86;118.99
66312;HTU21D;53114;51.138;6.008;2022-11-15T01:02:52;9.89;118.99
66312;HTU21D;53114;51.138;6.008;2022-11-15T01:05:38;9.86;118.99
66312;HTU21D;53114;51.138;6.008;2022-11-15T01:08:22;9.84;118.99
66312;HTU21D;53114;51.138;6.008;2022-11-15T01:11:10;9.80;118.99
66312;HTU21D;53114;51.138;6.008;2022-11-15T01:13:55;9.81;118.99
66312;HTU21D;53114;51.138;6.008;2022-11-15T01:16:40;9.85;118.99
66312;HTU21D;53114;51.138;6.008;2022-11-15T01:19:25;9.89;118.99
66312;HTU21D;53114;51.138;6.008;2022-11-15T01:22:10;9.88;118.99
66312;HTU21D;53114;51.138;6.008;2022-11-15T01:24:54;9.82;118.99
66312;HTU21D;53114;51.138;6.008;2022-11-15T01:27:39;9.75;118.99
66312;HTU21D;53114;51.138;6.008;2022-11-15T01:30:23;9.72;118.99
66312;HTU21D;53114;51.138;6.008;2022-11-15T01:33:08;9.74;118.99
66312;HTU21D;53114;51.138;6.008;2022-11-15T01:35:52;9.71;118.99
66312;HTU21D;53114;51.138;6.008;2022-11-15T01:38:37;9.66;118.99
66312;HTU21D;53114;51.138;6.008;2022-11-15T01:41:29;9.55;118.99
66312;HTU21D;53114;51.138;6.008;2022-11-15T01:50:12;9.40;118.99
66312;HTU21D;53114;51.138;6.008;2022-11-15T01:52:58;9.40;118.99
66312;HTU21D;53114;51.138;6.008;2022-11-15T01:55:44;9.49;118.99
66312;HTU21D;53114;51.138;6.008;2022-11-15T01:58:28;9.57;118.99
66312;HTU21D;53114;51.138;6.008;2022-11-15T02:01:14;9.70;118.99
66312;HTU21D;53114;51.138;6.008;2022-11-15T02:04:13;9.85;118.99
66312;HTU21D;53114;51.138;6.008;2022-11-15T02:06:59;9.98;118.99
66312;HTU21D;53114;51.138;6.008;2022-11-15T02:09:46;10.10;118.99
66312;HTU21D;53114;51.138;6.008;2022-11-15T02:12:31;10.21;118.99
66312;HTU21D;53114;51.138;6.008;2022-11-15T02:15:16;10.34;118.99
66312;HTU21D;53114;51.138;6.008;2022-11-15T02:18:09;10.51;118.99
66312;HTU21D;53114;51.138;6.008;2022-11-15T02:21:29;10.64;118.99
66312;HTU21D;53114;51.138;6.008;2022-11-15T02:24:40;10.78;118.99
66312;HTU21D;53114;51.138;6.008;2022-11-15T02:27:38;10.85;118.99
66312;HTU21D;53114;51.138;6.008;2022-11-15T02:33:31;11.03;118.99
66312;HTU21D;53114;51.138;6.008;2022-11-15T02:37:08;11.10;118.99
66312;HTU21D;53114;51.138;6.008;2022-11-15T02:42:27;11.20;118.99
66312;HTU21D;53114;51.138;6.008;2022-11-15T02:45:38;11.24;118.99
66312;HTU21D;53114;51.138;6.008;2022-11-15T02:48:26;11.28;118.99
66312;HTU21D;53114;51.138;6.008;2022-11-15T02:51:12;11.28;118.99
66312;HTU21D;53114;51.138;6.008;2022-11-15T02:53:56;11.27;118.99
66312;HTU21D;53114;51.138;6.008;2022-11-15T02:56:43;11.28;118.99
66312;HTU21D;53114;51.138;6.008;2022-11-15T03:05:53;10.99;118.99
66312;HTU21D;53114;51.138;6.008;2022-11-15T03:12:15;10.89;118.99
66312;HTU21D;53114;51.138;6.008;2022-11-15T03:15:16;10.94;118.99
66312;HTU21D;53114;51.138;6.008;2022-11-15T03:18:35;11.03;118.99
66312;HTU21D;53114;51.138;6.008;2022-11-15T03:21:22;11.05;118.99
66312;HTU21D;53114;51.138;6.008;2022-11-15T03:24:08;11.10;118.99
66312;HTU21D;53114;51.138;6.008;2022-11-15T03:26:56;11.16;118.99
66312;HTU21D;53114;51.138;6.008;2022-11-15T03:29:48;11.25;118.99
66312;HTU21D;53114;51.138;6.008;2022-11-15T03:32:41;11.30;118.99
66312;HTU21D;53114;51.138;6.008;2022-11-15T03:35:32;11.31;118.99
66312;HTU21D;53114;51.138;6.008;2022-11-15T03:38:26;11.36;118.99
66312;HTU21D;53114;51.138;6.008;2022-11-15T03:41:37;11.39;118.99
66312;HTU21D;53114;51.138;6.008;2022-11-15T03:45:08;11.41;118.99
66312;HTU21D;53114;51.138;6.008;2022-11-15T03:48:16;11.44;118.99
66312;HTU21D;53114;51.138;6.008;2022-11-15T03:51:04;11.46;118.99
66312;HTU21D;53114;51.138;6.008;2022-11-15T03:53:49;11.51;118.99
66312;HTU21D;53114;51.138;6.008;2022-11-15T03:56:33;11.54;118.99
66312;HTU21D;53114;51.138;6.008;2022-11-15T03:59:18;11.61;118.99
66312;HTU21D;53114;51.138;6.008;2022-11-15T04:02:02;11.67;118.99
66312;HTU21D;53114;51.138;6.008;2022-11-15T04:04:47;11.70;118.99
66312;HTU21D;53114;51.138;6.008;2022-11-15T04:07:34;11.71;118.99
66312;HTU21D;53114;51.138;6.008;2022-11-15T04:10:19;11.73;118.99
66312;HTU21D;53114;51.138;6.008;2022-11-15T04:13:04;11.75;118.99
66312;HTU21D;53114;51.138;6.008;2022-11-15T04:15:49;11.75;118.99
66312;HTU21D;53114;51.138;6.008;2022-11-15T04:18:33;11.77;118.99
66312;HTU21D;53114;51.138;6.008;2022-11-15T04:21:18;11.78;118.99
66312;HTU21D;53114;51.138;6.008;2022-11-15T04:24:21;11.79;118.99
66312;HTU21D;53114;51.138;6.008;2022-11-15T04:27:06;11.79;118.99
66312;HTU21D;53114;51.138;6.008;2022-11-15T04:29:51;11.82;118.99
66312;HTU21D;53114;51.138;6.008;2022-11-15T04:32:35;11.82;118.99
66312;HTU21D;53114;51.138;6.008;2022-11-15T04:35:20;11.83;118.99
66312;HTU21D;53114;51.138;6.008;2022-11-15T04:38:07;11.82;118.99
66312;HTU21D;53114;51.138;6.008;2022-11-15T04:40:52;11.83;118.99
66312;HTU21D;53114;51.138;6.008;2022-11-15T04:43:36;11.85;118.99
66312;HTU21D;53114;51.138;6.008;2022-11-15T04:46:22;11.87;118.99
66312;HTU21D;53114;51.138;6.008;2022-11-15T04:49:07;11.84;118.99
66312;HTU21D;53114;51.138;6.008;2022-11-15T04:51:52;11.84;118.99
66312;HTU21D;53114;51.138;6.008;2022-11-15T04:54:37;11.85;118.99
66312;HTU21D;53114;51.138;6.008;2022-11-15T04:57:22;11.87;118.99
66312;HTU21D;53114;51.138;6.008;2022-11-15T05:00:09;11.90;118.99
66312;HTU21D;53114;51.138;6.008;2022-11-15T05:02:56;11.92;118.99
66312;HTU21D;53114;51.138;6.008;2022-11-15T05:06:00;11.94;118.99
66312;HTU21D;53114;51.138;6.008;2022-11-15T05:08:45;11.94;118.99
66312;HTU21D;53114;51.138;6.008;2022-11-15T05:11:30;11.97;118.99
66312;HTU21D;53114;51.138;6.008;2022-11-15T05:14:15;11.97;118.99
66312;HTU21D;53114;51.138;6.008;2022-11-15T05:17:00;11.97;118.99
66312;HTU21D;53114;51.138;6.008;2022-11-15T05:19:45;11.98;118.99
66312;HTU21D;53114;51.138;6.008;2022-11-15T05:22:30;12.00;118.99
66312;HTU21D;53114;51.138;6.008;2022-11-15T05:25:15;12.02;118.99
66312;HTU21D;53114;51.138;6.008;2022-11-15T05:27:59;12.03;118.99
66312;HTU21D;53114;51.138;6.008;2022-11-15T05:30:45;12.05;118.99
66312;HTU21D;53114;51.138;6.008;2022-11-15T05:33:31;12.03;118.99
66312;HTU21D;53114;51.138;6.008;2022-11-15T05:36:41;12.06;118.99
66312;HTU21D;53114;51.138;6.008;2022-11-15T05:39:26;12.10;118.99
66312;HTU21D;53114;51.138;6.008;2022-11-15T05:42:13;12.11;118.99
66312;HTU21D;53114;51.138;6.008;2022-11-15T05:44:59;12.12;118.99
66312;HTU21D;53114;51.138;6.008;2022-11-15T05:47:47;12.11;118.99
66312;HTU21D;53114;51.138;6.008;2022-11-15T05:50:36;12.08;118.99
66312;HTU21D;53114;51.138;6.008;2022-11-15T05:53:25;12.13;118.99
66312;HTU21D;53114;51.138;6.008;2022-11-15T05:56:10;12.18;118.99
66312;HTU21D;53114;51.138;6.008;2022-11-15T05:58:57;12.22;118.99
66312;HTU21D;53114;51.138;6.008;2022-11-15T06:01:42;12.26;118.99
66312;HTU21D;53114;51.138;6.008;2022-11-15T06:04:27;12.30;118.99
66312;HTU21D;53114;51.138;6.008;2022-11-15T06:07:12;12.34;118.99
66312;HTU21D;53114;51.138;6.008;2022-11-15T06:09:57;12.37;118.99
66312;HTU21D;53114;51.138;6.008;2022-11-15T06:12:42;12.35;118.99
66312;HTU21D;53114;51.138;6.008;2022-11-15T06:15:27;12.35;118.99
66312;HTU21D;53114;51.138;6.008;2022-11-15T06:18:11;12.32;118.99
66312;HTU21D;53114;51.138;6.008;2022-11-15T06:20:58;12.27;118.99
66312;HTU21D;53114;51.138;6.008;2022-11-15T06:23:43;12.28;118.99
66312;HTU21D;53114;51.138;6.008;2022-11-15T06:26:28;12.30;118.99
66312;HTU21D;53114;51.138;6.008;2022-11-15T06:29:12;12.33;118.99
66312;HTU21D;53114;51.138;6.008;2022-11-15T06:31:56;12.33;118.99
66312;HTU21D;53114;51.138;6.008;2022-11-15T06:34:41;12.35;118.99
66312;HTU21D;53114;51.138;6.008;2022-11-15T06:37:26;12.37;118.99
66312;HTU21D;53114;51.138;6.008;2022-11-15T06:40:11;12.38;118.99
66312;HTU21D;53114;51.138;6.008;2022-11-15T06:42:59;12.38;118.99
66312;HTU21D;53114;51.138;6.008;2022-11-15T06:45:44;12.34;118.99
66312;HTU21D;53114;51.138;6.008;2022-11-15T06:48:29;12.30;118.99
66312;HTU21D;53114;51.138;6.008;2022-11-15T06:51:14;12.27;118.99
66312;HTU21D;53114;51.138;6.008;2022-11-15T06:53:58;12.25;118.99
66312;HTU21D;53114;51.138;6.008;2022-11-15T06:56:43;12.26;118.99
66312;HTU21D;53114;51.138;6.008;2022-11-15T06:59:27;12.23;118.99
66312;HTU21D;53114;51.138;6.008;2022-11-15T07:02:13;12.25;118.99
66312;HTU21D;53114;51.138;6.008;2022-11-15T07:04:58;12.22;118.99
66312;HTU21D;53114;51.138;6.008;2022-11-15T07:07:43;12.22;118.99
66312;HTU21D;53114;51.138;6.008;2022-11-15T07:10:28;12.22;118.99
66312;HTU21D;53114;51.138;6.008;2022-11-15T07:13:13;12.18;118.99
66312;HTU21D;53114;51.138;6.008;2022-11-15T07:15:57;12.14;118.99
66312;HTU21D;53114;51.138;6.008;2022-11-15T07:18:42;12.07;118.99
66312;HTU21D;53114;51.138;6.008;2022-11-15T07:21:26;12.03;118.99
66312;HTU21D;53114;51.138;6.008;2022-11-15T07:24:11;11.96;118.99
66312;HTU21D;53114;51.138;6.008;2022-11-15T07:26:56;11.98;118.99
66312;HTU21D;53114;51.138;6.008;2022-11-15T07:29:41;11.94;118.99
66312;HTU21D;53114;51.138;6.008;2022-11-15T07:32:26;11.93;118.99
66312;HTU21D;53114;51.138;6.008;2022-11-15T07:35:11;11.93;118.99
66312;HTU21D;53114;51.138;6.008;2022-11-15T07:37:57;11.94;118.99
66312;HTU21D;53114;51.138;6.008;2022-11-15T07:40:42;11.97;118.99
66312;HTU21D;53114;51.138;6.008;2022-11-15T07:43:27;12.01;118.99
66312;HTU21D;53114;51.138;6.008;2022-11-15T07:46:14;12.01;118.99
66312;HTU21D;53114;51.138;6.008;2022-11-15T07:48:58;12.04;118.99
66312;HTU21D;53114;51.138;6.008;2022-11-15T07:51:43;12.11;118.99
66312;HTU21D;53114;51.138;6.008;2022-11-15T07:54:28;12.07;118.99
66312;HTU21D;53114;51.138;6.008;2022-11-15T07:57:12;12.12;118.99
66312;HTU21D;53114;51.138;6.008;2022-11-15T07:59:57;12.13;118.99
66312;HTU21D;53114;51.138;6.008;2022-11-15T08:02:42;12.21;118.99
66312;HTU21D;53114;51.138;6.008;2022-11-15T08:05:26;12.31;118.99
66312;HTU21D;53114;51.138;6.008;2022-11-15T08:08:11;12.35;118.99
66312;HTU21D;53114;51.138;6.008;2022-11-15T08:10:57;12.34;118.99
66312;HTU21D;53114;51.138;6.008;2022-11-15T08:13:42;12.43;118.99
66312;HTU21D;53114;51.138;6.008;2022-11-15T08:16:26;12.48;118.99
66312;HTU21D;53114;51.138;6.008;2022-11-15T08:19:11;12.59;118.99
66312;HTU21D;53114;51.138;6.008;2022-11-15T08:21:56;12.69;118.99
66312;HTU21D;53114;51.138;6.008;2022-11-15T08:24:41;12.77;118.99
66312;HTU21D;53114;51.138;6.008;2022-11-15T08:27:26;12.87;118.99
66312;HTU21D;53114;51.138;6.008;2022-11-15T08:30:11;12.91;118.99
66312;HTU21D;53114;51.138;6.008;2022-11-15T08:32:57;12.95;118.99
66312;HTU21D;53114;51.138;6.008;2022-11-15T08:35:43;12.99;118.99
66312;HTU21D;53114;51.138;6.008;2022-11-15T08:38:28;12.97;118.99
66312;HTU21D;53114;51.138;6.008;2022-11-15T08:41:26;12.93;118.99
66312;HTU21D;53114;51.138;6.008;2022-11-15T08:44:12;12.99;118.99
66312;HTU21D;53114;51.138;6.008;2022-11-15T08:46:56;13.08;118.99
66312;HTU21D;53114;51.138;6.008;2022-11-15T08:49:41;13.08;118.99
66312;HTU21D;53114;51.138;6.008;2022-11-15T08:52:26;13.01;118.99
66312;HTU21D;53114;51.138;6.008;2022-11-15T08:55:10;13.11;118.99
66312;HTU21D;53114;51.138;6.008;2022-11-15T08:57:57;13.18;118.99
66312;HTU21D;53114;51.138;6.008;2022-11-15T09:00:41;13.21;118.99
66312;HTU21D;53114;51.138;6.008;2022-11-15T09:03:26;13.21;118.99
66312;HTU21D;53114;51.138;6.008;2022-11-15T09:06:12;13.18;118.99
66312;HTU21D;53114;51.138;6.008;2022-11-15T09:08:57;13.11;118.99
66312;HTU21D;53114;51.138;6.008;2022-11-15T09:11:41;13.01;118.99
66312;HTU21D;53114;51.138;6.008;2022-11-15T09:14:26;13.15;118.99
66312;HTU21D;53114;51.138;6.008;2022-11-15T09:17:11;13.25;118.99
66312;HTU21D;53114;51.138;6.008;2022-11-15T09:19:55;13.32;118.99
66312;HTU21D;53114;51.138;6.008;2022-11-15T09:22:39;13.32;118.99
66312;HTU21D;53114;51.138;6.008;2022-11-15T09:25:24;13.35;118.99
66312;HTU21D;53114;51.138;6.008;2022-11-15T09:28:09;13.46;118.99
66312;HTU21D;53114;51.138;6.008;2022-11-15T09:31:01;13.68;118.99
66312;HTU21D;53114;51.138;6.008;2022-11-15T09:33:46;14.44;118.99
66312;HTU21D;53114;51.138;6.008;2022-11-15T09:36:31;15.53;118.99
66312;HTU21D;53114;51.138;6.008;2022-11-15T09:39:15;16.13;118.99
66312;HTU21D;53114;51.138;6.008;2022-11-15T09:42:10;16.39;118.99
66312;HTU21D;53114;51.138;6.008;2022-11-15T09:51:14;16.11;117.31
66312;HTU21D;53114;51.138;6.008;2022-11-15T09:56:40;16.10;118.01
66312;HTU21D;53114;51.138;6.008;2022-11-15T10:02:05;15.80;115.70
66312;HTU21D;53114;51.138;6.008;2022-11-15T10:04:37;15.49;116.06
66312;HTU21D;53114;51.138;6.008;2022-11-15T10:07:37;15.27;118.99
66312;HTU21D;53114;51.138;6.008;2022-11-15T10:10:20;15.26;118.99
66312;HTU21D;53114;51.138;6.008;2022-11-15T10:12:51;15.51;118.99
66312;HTU21D;53114;51.138;6.008;2022-11-15T10:15:18;15.89;117.88
66312;HTU21D;53114;51.138;6.008;2022-11-15T10:18:06;16.21;114.58
66312;HTU21D;53114;51.138;6.008;2022-11-15T10:20:51;16.61;118.07
66312;HTU21D;53114;51.138;6.008;2022-11-15T10:23:21;17.65;116.35
66312;HTU21D;53114;51.138;6.008;2022-11-15T10:25:51;18.61;106.26
66312;HTU21D;53114;51.138;6.008;2022-11-15T10:28:29;19.05;90.15
66312;HTU21D;53114;51.138;6.008;2022-11-15T10:30:58;19.02;89.91
66312;HTU21D;53114;51.138;6.008;2022-11-15T10:33:33;18.98;79.86
66312;HTU21D;53114;51.138;6.008;2022-11-15T10:36:15;18.67;81.67
66312;HTU21D;53114;51.138;6.008;2022-11-15T10:38:51;18.19;87.37
66312;HTU21D;53114;51.138;6.008;2022-11-15T10:46:45;16.46;99.78
66312;HTU21D;53114;51.138;6.008;2022-11-15T10:49:22;16.07;106.28
66312;HTU21D;53114;51.138;6.008;2022-11-15T10:54:43;15.61;109.62
66312;HTU21D;53114;51.138;6.008;2022-11-15T10:57:15;15.47;111.15
66312;HTU21D;53114;51.138;6.008;2022-11-15T10:59:46;15.29;111.46
66312;HTU21D;53114;51.138;6.008;2022-11-15T11:02:27;15.18;113.79
66312;HTU21D;53114;51.138;6.008;2022-11-15T11:04:58;15.12;113.06
66312;HTU21D;53114;51.138;6.008;2022-11-15T11:07:29;14.96;110.23
66312;HTU21D;53114;51.138;6.008;2022-11-15T11:10:20;14.86;111.26
66312;HTU21D;53114;51.138;6.008;2022-11-15T11:12:47;14.78;112.54
66312;HTU21D;53114;51.138;6.008;2022-11-15T11:15:15;14.80;114.18
66312;HTU21D;53114;51.138;6.008;2022-11-15T11:18:07;15.39;115.03
66312;HTU21D;53114;51.138;6.008;2022-11-15T11:20:51;16.07;111.48
66312;HTU21D;53114;51.138;6.008;2022-11-15T11:24:00;16.64;94.67
66312;HTU21D;53114;51.138;6.008;2022-11-15T11:26:40;16.65;104.83
66312;HTU21D;53114;51.138;6.008;2022-11-15T11:29:38;16.52;100.83
66312;HTU21D;53114;51.138;6.008;2022-11-15T11:41:19;16.22;100.21
66312;HTU21D;53114;51.138;6.008;2022-11-15T11:46:48;16.06;105.80
66312;HTU21D;53114;51.138;6.008;2022-11-15T11:49:30;16.07;105.08
66312;HTU21D;53114;51.138;6.008;2022-11-15T12:00:23;15.75;105.93
66312;HTU21D;53114;51.138;6.008;2022-11-15T12:05:27;15.86;107.48
66312;HTU21D;53114;51.138;6.008;2022-11-15T12:08:16;15.90;105.31
66312;HTU21D;53114;51.138;6.008;2022-11-15T12:10:49;16.05;105.66
66312;HTU21D;53114;51.138;6.008;2022-11-15T12:13:21;16.25;103.05
66312;HTU21D;53114;51.138;6.008;2022-11-15T12:18:44;16.30;101.51
66312;HTU21D;53114;51.138;6.008;2022-11-15T12:21:44;16.35;102.67
66312;HTU21D;53114;51.138;6.008;2022-11-15T12:24:20;16.41;102.67
66312;HTU21D;53114;51.138;6.008;2022-11-15T12:26:57;16.46;101.61
66312;HTU21D;53114;51.138;6.008;2022-11-15T12:29:47;16.26;98.90
66312;HTU21D;53114;51.138;6.008;2022-11-15T12:34:48;15.77;104.00
66312;HTU21D;53114;51.138;6.008;2022-11-15T12:42:41;15.81;105.63
66312;HTU21D;53114;51.138;6.008;2022-11-15T12:45:34;15.90;105.50
66312;HTU21D;53114;51.138;6.008;2022-11-15T12:50:56;15.70;104.22
66312;HTU21D;53114;51.138;6.008;2022-11-15T13:06:47;15.70;111.28
66312;HTU21D;53114;51.138;6.008;2022-11-15T13:12:11;15.80;110.15
66312;HTU21D;53114;51.138;6.008;2022-11-15T13:15:07;15.88;111.65
66312;HTU21D;53114;51.138;6.008;2022-11-15T13:17:55;15.89;110.22
66312;HTU21D;53114;51.138;6.008;2022-11-15T13:20:32;15.93;113.36
66312;HTU21D;53114;51.138;6.008;2022-11-15T13:23:07;15.96;112.60
66312;HTU21D;53114;51.138;6.008;2022-11-15T13:33:25;15.99;118.69
66312;HTU21D;53114;51.138;6.008;2022-11-15T13:36:05;15.99;118.80
66312;HTU21D;53114;51.138;6.008;2022-11-15T13:38:37;16.04;118.24
66312;HTU21D;53114;51.138;6.008;2022-11-15T13:43:42;16.05;118.56
66312;HTU21D;53114;51.138;6.008;2022-11-15T13:48:38;16.06;117.36
66312;HTU21D;53114;51.138;6.008;2022-11-15T13:51:12;16.01;117.94
66312;HTU21D;53114;51.138;6.008;2022-11-15T13:53:46;15.89;117.41
66312;HTU21D;53114;51.138;6.008;2022-11-15T13:56:17;15.80;118.02
66312;HTU21D;53114;51.138;6.008;2022-11-15T13:58:44;15.72;118.78
66312;HTU21D;53114;51.138;6.008;2022-11-15T14:01:17;15.66;118.99
66312;HTU21D;53114;51.138;6.008;2022-11-15T14:03:57;15.55;118.99
66312;HTU21D;53114;51.138;6.008;2022-11-15T14:06:29;15.46;118.99
66312;HTU21D;53114;51.138;6.008;2022-11-15T14:11:52;15.31;118.99
66312;HTU21D;53114;51.138;6.008;2022-11-15T14:14:24;15.29;118.99
66312;HTU21D;53114;51.138;6.008;2022-11-15T14:16:59;15.23;118.99
66312;HTU21D;53114;51.138;6.008;2022-11-15T14:24:40;15.22;118.99
66312;HTU21D;53114;51.138;6.008;2022-11-15T14:29:44;15.21;118.99
66312;HTU21D;53114;51.138;6.008;2022-11-15T14:32:19;15.19;118.99
66312;HTU21D;53114;51.138;6.008;2022-11-15T14:34:58;15.22;118.99
66312;HTU21D;53114;51.138;6.008;2022-11-15T14:37:30;15.27;118.99
66312;HTU21D;53114;51.138;6.008;2022-11-15T14:39:58;15.26;118.99
66312;HTU21D;53114;51.138;6.008;2022-11-15T14:42:25;15.22;118.99
66312;HTU21D;53114;51.138;6.008;2022-11-15T14:44:51;15.21;118.99
66312;HTU21D;53114;51.138;6.008;2022-11-15T14:47:18;15.19;118.99
66312;HTU21D;53114;51.138;6.008;2022-11-15T14:49:45;15.21;118.99
66312;HTU21D;53114;51.138;6.008;2022-11-15T14:52:32;15.19;118.99
66312;HTU21D;53114;51.138;6.008;2022-11-15T14:55:08;15.16;118.99
66312;HTU21D;53114;51.138;6.008;2022-11-15T14:57:36;15.09;118.99
66312;HTU21D;53114;51.138;6.008;2022-11-15T15:00:05;15.00;118.99
66312;HTU21D;53114;51.138;6.008;2022-11-15T15:02:42;14.91;118.99
66312;HTU21D;53114;51.138;6.008;2022-11-15T15:07:40;14.81;118.99
66312;HTU21D;53114;51.138;6.008;2022-11-15T15:10:06;14.71;118.99
66312;HTU21D;53114;51.138;6.008;2022-11-15T15:12:33;14.64;118.99
66312;HTU21D;53114;51.138;6.008;2022-11-15T15:14:59;14.58;118.99
66312;HTU21D;53114;51.138;6.008;2022-11-15T15:17:25;14.53;118.99
66312;HTU21D;53114;51.138;6.008;2022-11-15T15:19:51;14.48;118.99
66312;HTU21D;53114;51.138;6.008;2022-11-15T15:22:19;14.39;118.99
66312;HTU21D;53114;51.138;6.008;2022-11-15T15:24:47;14.35;118.99
66312;HTU21D;53114;51.138;6.008;2022-11-15T15:27:13;14.29;118.99
66312;HTU21D;53114;51.138;6.008;2022-11-15T15:29:40;14.23;118.99
66312;HTU21D;53114;51.138;6.008;2022-11-15T15:32:06;14.18;118.99
66312;HTU21D;53114;51.138;6.008;2022-11-15T15:34:32;14.14;118.99
66312;HTU21D;53114;51.138;6.008;2022-11-15T15:39:40;14.12;118.99
66312;HTU21D;53114;51.138;6.008;2022-11-15T15:42:06;14.10;118.99
66312;HTU21D;53114;51.138;6.008;2022-11-15T15:44:32;14.06;118.99
66312;HTU21D;53114;51.138;6.008;2022-11-15T15:46:58;14.01;118.99
66312;HTU21D;53114;51.138;6.008;2022-11-15T15:49:24;13.99;118.99
66312;HTU21D;53114;51.138;6.008;2022-11-15T15:51:50;13.99;118.99
66312;HTU21D;53114;51.138;6.008;2022-11-15T15:54:16;13.95;118.99
66312;HTU21D;53114;51.138;6.008;2022-11-15T15:56:42;13.91;118.99
66312;HTU21D;53114;51.138;6.008;2022-11-15T15:59:08;13.91;118.99
66312;HTU21D;53114;51.138;6.008;2022-11-15T16:01:33;13.89;118.99
66312;HTU21D;53114;51.138;6.008;2022-11-15T16:03:59;13.90;118.99
66312;HTU21D;53114;51.138;6.008;2022-11-15T16:06:40;13.88;118.99
66312;HTU21D;53114;51.138;6.008;2022-11-15T16:09:18;13.86;118.99
66312;HTU21D;53114;51.138;6.008;2022-11-15T16:12:05;13.83;118.99
66312;HTU21D;53114;51.138;6.008;2022-11-15T16:14:31;13.84;118.99
66312;HTU21D;53114;51.138;6.008;2022-11-15T16:16:57;13.84;118.99
66312;HTU21D;53114;51.138;6.008;2022-11-15T16:19:23;13.88;118.99
66312;HTU21D;53114;51.138;6.008;2022-11-15T16:21:49;13.93;118.99
66312;HTU21D;53114;51.138;6.008;2022-11-15T16:24:18;13.85;118.99
66312;HTU21D;53114;51.138;6.008;2022-11-15T16:26:45;13.73;118.99
66312;HTU21D;53114;51.138;6.008;2022-11-15T16:29:12;13.56;118.99
66312;HTU21D;53114;51.138;6.008;2022-11-15T16:31:38;13.45;118.99
66312;HTU21D;53114;51.138;6.008;2022-11-15T16:34:04;13.36;118.99
66312;HTU21D;53114;51.138;6.008;2022-11-15T16:36:32;13.30;118.99
66312;HTU21D;53114;51.138;6.008;2022-11-15T16:39:00;13.22;118.99
66312;HTU21D;53114;51.138;6.008;2022-11-15T16:41:30;13.14;118.99
66312;HTU21D;53114;51.138;6.008;2022-11-15T16:43:56;13.06;118.99
66312;HTU21D;53114;51.138;6.008;2022-11-15T16:46:24;12.99;118.99
66312;HTU21D;53114;51.138;6.008;2022-11-15T16:48:51;12.90;118.99
66312;HTU21D;53114;51.138;6.008;2022-11-15T16:51:18;12.86;118.99
66312;HTU21D;53114;51.138;6.008;2022-11-15T16:53:46;12.82;118.99
66312;HTU21D;53114;51.138;6.008;2022-11-15T16:56:26;12.79;118.99
66312;HTU21D;53114;51.138;6.008;2022-11-15T16:58:53;12.71;118.99
66312;HTU21D;53114;51.138;6.008;2022-11-15T17:01:27;12.66;118.99
66312;HTU21D;53114;51.138;6.008;2022-11-15T17:03:54;12.62;118.99
66312;HTU21D;53114;51.138;6.008;2022-11-15T17:06:21;12.61;118.99
66312;HTU21D;53114;51.138;6.008;2022-11-15T17:08:47;12.59;118.99
66312;HTU21D;53114;51.138;6.008;2022-11-15T17:11:17;12.56;118.99
66312;HTU21D;53114;51.138;6.008;2022-11-15T17:13:44;12.47;118.99
66312;HTU21D;53114;51.138;6.008;2022-11-15T17:16:13;12.40;118.99
66312;HTU21D;53114;51.138;6.008;2022-11-15T17:18:40;12.35;118.99
66312;HTU21D;53114;51.138;6.008;2022-11-15T17:21:18;12.33;118.99
66312;HTU21D;53114;51.138;6.008;2022-11-15T17:23:45;12.29;118.99
66312;HTU21D;53114;51.138;6.008;2022-11-15T17:26:14;12.27;118.99
66312;HTU21D;53114;51.138;6.008;2022-11-15T17:28:40;12.27;118.99
66312;HTU21D;53114;51.138;6.008;2022-11-15T17:31:08;12.25;118.99
66312;HTU21D;53114;51.138;6.008;2022-11-15T17:33:36;12.20;118.99
66312;HTU21D;53114;51.138;6.008;2022-11-15T17:36:05;12.18;118.99
66312;HTU21D;53114;51.138;6.008;2022-11-15T17:38:32;12.15;118.99
66312;HTU21D;53114;51.138;6.008;2022-11-15T17:41:09;12.12;118.99
66312;HTU21D;53114;51.138;6.008;2022-11-15T17:43:37;12.10;118.99
66312;HTU21D;53114;51.138;6.008;2022-11-15T17:46:09;12.06;118.99
66312;HTU21D;53114;51.138;6.008;2022-11-15T17:48:38;12.05;118.99
66312;HTU21D;53114;51.138;6.008;2022-11-15T17:51:07;12.05;118.99
66312;HTU21D;53114;51.138;6.008;2022-11-15T17:53:38;12.05;118.99
66312;HTU21D;53114;51.138;6.008;2022-11-15T17:56:09;12.06;118.99
66312;HTU21D;53114;51.138;6.008;2022-11-15T17:58:35;12.06;118.99
66312;HTU21D;53114;51.138;6.008;2022-11-15T18:01:28;12.07;118.99
66312;HTU21D;53114;51.138;6.008;2022-11-15T18:03:56;12.08;118.99
66312;HTU21D;53114;51.138;6.008;2022-11-15T18:06:23;12.06;118.99
66312;HTU21D;53114;51.138;6.008;2022-11-15T18:08:51;12.06;118.99
66312;HTU21D;53114;51.138;6.008;2022-11-15T18:11:20;12.05;118.99
66312;HTU21D;53114;51.138;6.008;2022-11-15T18:13:49;12.03;118.99
66312;HTU21D;53114;51.138;6.008;2022-11-15T18:16:19;12.00;118.99
66312;HTU21D;53114;51.138;6.008;2022-11-15T18:18:45;12.03;118.99
66312;HTU21D;53114;51.138;6.008;2022-11-15T18:21:17;12.05;118.99
66312;HTU21D;53114;51.138;6.008;2022-11-15T18:23:44;12.08;118.99
66312;HTU21D;53114;51.138;6.008;2022-11-15T18:26:13;12.07;118.99
66312;HTU21D;53114;51.138;6.008;2022-11-15T18:28:44;12.07;118.99